createdAt,value
2022-12-23T00:00:03.780Z,55.96
2022-12-23T00:01:03.768Z,55.96
2022-12-23T00:02:03.956Z,56.07
2022-12-23T00:03:03.950Z,55.96
2022-12-23T00:04:03.774Z,55.96
2022-12-23T00:05:03.765Z,56.07
2022-12-23T00:06:03.717Z,55.96
2022-12-23T00:07:03.701Z,56.09
2022-12-23T00:08:03.693Z,55.96
2022-12-23T00:09:03.724Z,56.16
2022-12-23T00:10:03.692Z,56.16
2022-12-23T00:11:03.707Z,56.20
2022-12-23T00:12:03.644Z,56.07
2022-12-23T00:13:03.643Z,56.09
2022-12-23T00:14:03.634Z,55.99
2022-12-23T00:15:03.626Z,56.09
2022-12-23T00:16:03.703Z,55.96
2022-12-23T00:17:09.321Z,55.99
2022-12-23T00:18:03.598Z,56.20
2022-12-23T00:19:03.609Z,56.20
2022-12-23T00:20:03.557Z,56.09
2022-12-23T00:21:08.583Z,55.99
2022-12-23T00:22:03.545Z,56.20
2022-12-23T00:23:03.550Z,56.09
2022-12-23T00:24:03.527Z,55.99
2022-12-23T00:25:03.508Z,55.99
2022-12-23T00:26:03.500Z,55.89
2022-12-23T00:27:03.483Z,55.99
2022-12-23T00:28:03.471Z,55.89
2022-12-23T00:29:03.486Z,55.99
2022-12-23T00:30:03.459Z,55.89
2022-12-23T00:31:03.461Z,55.89
2022-12-23T00:32:03.466Z,55.87
2022-12-23T00:33:03.440Z,55.89
2022-12-23T00:34:03.421Z,55.99
2022-12-23T00:35:03.424Z,55.89
2022-12-23T00:36:03.490Z,55.89
2022-12-23T00:37:03.383Z,55.89
2022-12-23T00:38:03.364Z,55.89
2022-12-23T00:39:03.358Z,55.79
2022-12-23T00:40:06.719Z,55.87
2022-12-23T00:41:03.391Z,55.89
2022-12-23T00:42:03.330Z,55.79
2022-12-23T00:43:03.307Z,55.99
2022-12-23T00:44:03.316Z,55.89
2022-12-23T00:45:03.290Z,55.99
2022-12-23T00:46:03.405Z,55.99
2022-12-23T00:47:03.305Z,55.99
2022-12-23T00:48:03.254Z,55.96
2022-12-23T00:49:03.247Z,56.09
2022-12-23T00:50:03.235Z,56.09
2022-12-23T00:51:03.233Z,56.09
2022-12-23T00:52:03.220Z,55.99
2022-12-23T00:53:03.220Z,55.99
2022-12-23T00:54:03.188Z,55.89
2022-12-23T00:55:03.173Z,55.99
2022-12-23T00:56:03.184Z,56.09
2022-12-23T00:57:03.162Z,56.20
2022-12-23T00:58:03.147Z,56.09
2022-12-23T00:59:03.193Z,56.20
2022-12-23T01:00:03.137Z,55.99
2022-12-23T01:01:03.158Z,56.20
2022-12-23T01:02:03.367Z,56.09
2022-12-23T01:03:03.224Z,56.09
2022-12-23T01:04:03.074Z,56.20
2022-12-23T01:05:03.088Z,55.99
2022-12-23T01:06:03.071Z,56.09
2022-12-23T01:07:03.056Z,56.07
2022-12-23T01:08:03.041Z,55.99
2022-12-23T01:09:03.020Z,56.20
2022-12-23T01:10:03.024Z,56.07
2022-12-23T01:11:03.032Z,55.99
2022-12-23T01:12:02.997Z,55.99
2022-12-23T01:13:02.989Z,55.87
2022-12-23T01:14:02.965Z,55.87
2022-12-23T01:15:02.968Z,56.07
2022-12-23T01:16:02.944Z,55.87
2022-12-23T01:17:03.070Z,55.76
2022-12-23T01:18:02.934Z,55.76
2022-12-23T01:19:02.916Z,55.76
2022-12-23T01:20:02.905Z,55.76
2022-12-23T01:21:02.915Z,55.76
2022-12-23T01:22:02.885Z,55.76
2022-12-23T01:23:02.917Z,55.66
2022-12-23T01:24:02.874Z,55.76
2022-12-23T01:25:02.846Z,55.76
2022-12-23T01:26:02.839Z,55.76
2022-12-23T01:27:02.835Z,55.87
2022-12-23T01:28:02.821Z,55.66
2022-12-23T01:29:02.856Z,55.66
2022-12-23T01:30:02.792Z,55.66
2022-12-23T01:31:02.781Z,55.76
2022-12-23T01:32:02.908Z,55.76
2022-12-23T01:33:02.771Z,55.87
2022-12-23T01:34:02.750Z,55.66
2022-12-23T01:35:02.781Z,55.87
2022-12-23T01:36:02.734Z,55.66
2022-12-23T01:37:02.722Z,55.76
2022-12-23T01:38:02.707Z,55.66
2022-12-23T01:39:02.700Z,55.66
2022-12-23T01:40:02.690Z,55.66
2022-12-23T01:41:02.691Z,55.56
2022-12-23T01:42:02.659Z,55.56
2022-12-23T01:43:02.657Z,55.56
2022-12-23T01:44:02.642Z,55.66
2022-12-23T01:45:02.655Z,55.66
2022-12-23T01:46:02.684Z,55.66
2022-12-23T01:47:02.640Z,55.56
2022-12-23T01:48:02.606Z,55.66
2022-12-23T01:49:02.590Z,55.66
2022-12-23T01:50:02.580Z,55.66
2022-12-23T01:51:02.597Z,55.66
2022-12-23T01:52:02.558Z,55.66
2022-12-23T01:53:07.269Z,55.76
2022-12-23T01:54:02.554Z,55.66
2022-12-23T01:55:02.536Z,55.66
2022-12-23T01:56:02.513Z,55.66
2022-12-23T01:57:02.503Z,55.66
2022-12-23T01:58:02.489Z,55.76
2022-12-23T01:59:02.524Z,55.66
2022-12-23T02:00:02.462Z,55.66
2022-12-23T02:01:02.566Z,55.66
2022-12-23T02:02:02.626Z,55.66
2022-12-23T02:03:02.608Z,55.66
2022-12-23T02:04:02.427Z,55.76
2022-12-23T02:05:02.435Z,55.66
2022-12-23T02:06:02.398Z,55.66
2022-12-23T02:07:02.394Z,55.66
2022-12-23T02:08:02.410Z,55.66
2022-12-23T02:09:02.383Z,55.66
2022-12-23T02:10:02.380Z,55.66
2022-12-23T02:11:02.379Z,55.66
2022-12-23T02:12:02.343Z,55.76
2022-12-23T02:13:02.323Z,55.87
2022-12-23T02:14:02.307Z,55.66
2022-12-23T02:15:02.301Z,55.66
2022-12-23T02:16:02.302Z,55.66
2022-12-23T02:17:02.379Z,55.76
2022-12-23T02:18:02.276Z,55.66
2022-12-23T02:19:02.261Z,55.76
2022-12-23T02:20:02.251Z,55.66
2022-12-23T02:21:02.242Z,55.66
2022-12-23T02:22:02.226Z,55.76
2022-12-23T02:23:02.264Z,55.76
2022-12-23T02:24:02.210Z,55.76
2022-12-23T02:25:02.197Z,55.76
2022-12-23T02:26:02.188Z,55.66
2022-12-23T02:27:02.192Z,55.76
2022-12-23T02:28:02.166Z,55.76
2022-12-23T02:29:02.176Z,55.76
2022-12-23T02:30:02.135Z,55.76
2022-12-23T02:31:02.174Z,55.76
2022-12-23T02:32:02.123Z,55.87
2022-12-23T02:33:02.108Z,55.76
2022-12-23T02:34:02.107Z,55.76
2022-12-23T02:35:02.111Z,55.76
2022-12-23T02:36:02.074Z,55.76
2022-12-23T02:37:02.055Z,55.87
2022-12-23T02:38:02.046Z,55.76
2022-12-23T02:39:02.036Z,55.87
2022-12-23T02:40:02.025Z,55.76
2022-12-23T02:41:02.052Z,55.76
2022-12-23T02:42:02.011Z,55.76
2022-12-23T02:43:01.997Z,55.76
2022-12-23T02:44:02.019Z,55.87
2022-12-23T02:45:01.989Z,55.87
2022-12-23T02:46:02.044Z,55.76
2022-12-23T02:47:01.986Z,55.76
2022-12-23T02:48:01.943Z,55.87
2022-12-23T02:49:01.938Z,55.87
2022-12-23T02:50:01.961Z,55.87
2022-12-23T02:51:01.908Z,55.96
2022-12-23T02:52:01.905Z,55.87
2022-12-23T02:53:01.912Z,55.76
2022-12-23T02:54:01.871Z,55.96
2022-12-23T02:55:01.860Z,55.87
2022-12-23T02:56:01.870Z,55.87
2022-12-23T02:57:01.862Z,55.87
2022-12-23T02:58:01.828Z,55.87
2022-12-23T02:59:01.853Z,55.87
2022-12-23T03:00:01.825Z,55.87
2022-12-23T03:01:01.939Z,55.87
2022-12-23T03:02:01.974Z,55.96
2022-12-23T03:03:01.927Z,55.87
2022-12-23T03:04:01.849Z,56.16
2022-12-23T03:05:01.796Z,55.87
2022-12-23T03:06:01.747Z,55.87
2022-12-23T03:07:07.452Z,55.87
2022-12-23T03:08:01.741Z,55.96
2022-12-23T03:09:01.704Z,55.96
2022-12-23T03:10:01.719Z,56.07
2022-12-23T03:11:01.719Z,56.16
2022-12-23T03:12:01.687Z,56.16
2022-12-23T03:13:01.668Z,56.07
2022-12-23T03:14:01.651Z,55.96
2022-12-23T03:15:01.644Z,55.87
2022-12-23T03:16:01.713Z,55.96
2022-12-23T03:17:01.667Z,56.07
2022-12-23T03:18:01.626Z,55.87
2022-12-23T03:19:01.608Z,55.87
2022-12-23T03:20:01.594Z,55.87
2022-12-23T03:21:01.592Z,55.87
2022-12-23T03:22:01.568Z,55.96
2022-12-23T03:23:01.599Z,55.96
2022-12-23T03:24:01.547Z,56.07
2022-12-23T03:25:01.539Z,55.96
2022-12-23T03:26:01.528Z,55.87
2022-12-23T03:27:01.515Z,55.87
2022-12-23T03:28:01.521Z,55.87
2022-12-23T03:29:01.536Z,55.96
2022-12-23T03:30:01.497Z,55.96
2022-12-23T03:31:01.526Z,55.96
2022-12-23T03:32:01.463Z,55.96
2022-12-23T03:33:01.455Z,56.07
2022-12-23T03:34:01.444Z,56.07
2022-12-23T03:35:01.453Z,55.96
2022-12-23T03:36:01.427Z,55.96
2022-12-23T03:37:01.405Z,55.96
2022-12-23T03:38:01.401Z,55.96
2022-12-23T03:39:01.382Z,55.96
2022-12-23T03:40:01.364Z,55.87
2022-12-23T03:41:01.399Z,56.07
2022-12-23T03:42:01.360Z,56.07
2022-12-23T03:43:01.347Z,55.96
2022-12-23T03:44:01.332Z,56.07
2022-12-23T03:45:37.066Z,55.96
2022-12-23T03:46:01.365Z,55.96
2022-12-23T03:47:01.326Z,55.96
2022-12-23T03:48:01.285Z,55.87
2022-12-23T03:49:01.273Z,55.87
2022-12-23T03:50:01.275Z,55.96
2022-12-23T03:51:01.259Z,55.87
2022-12-23T03:52:01.258Z,55.87
2022-12-23T03:53:01.264Z,55.96
2022-12-23T03:54:01.218Z,55.96
2022-12-23T03:55:01.216Z,55.96
2022-12-23T03:56:01.212Z,55.87
2022-12-23T03:57:01.191Z,55.96
2022-12-23T03:58:01.182Z,55.87
2022-12-23T03:59:01.201Z,55.96
2022-12-23T04:00:01.153Z,55.96
2022-12-23T04:01:01.151Z,55.96
2022-12-23T04:02:01.377Z,55.96
2022-12-23T04:03:01.276Z,55.87
2022-12-23T04:04:01.170Z,55.96
2022-12-23T04:05:01.142Z,55.96
2022-12-23T04:06:01.099Z,55.96
2022-12-23T04:07:01.096Z,55.96
2022-12-23T04:08:01.075Z,55.96
2022-12-23T04:09:01.078Z,55.87
2022-12-23T04:10:01.059Z,55.87
2022-12-23T04:11:01.090Z,55.89
2022-12-23T04:12:01.030Z,55.87
2022-12-23T04:13:01.054Z,55.96
2022-12-23T04:14:01.011Z,55.96
2022-12-23T04:15:01.035Z,55.96
2022-12-23T04:16:01.073Z,55.96
2022-12-23T04:17:01.014Z,55.89
2022-12-23T04:18:00.969Z,55.89
2022-12-23T04:19:00.963Z,55.87
2022-12-23T04:20:00.945Z,55.99
2022-12-23T04:21:00.934Z,55.89
2022-12-23T04:22:00.927Z,55.89
2022-12-23T04:23:01.072Z,55.99
2022-12-23T04:24:00.904Z,55.87
2022-12-23T04:25:00.903Z,55.99
2022-12-23T04:26:00.875Z,55.99
2022-12-23T04:27:00.880Z,55.99
2022-12-23T04:28:00.853Z,55.96
2022-12-23T04:29:00.880Z,55.99
2022-12-23T04:30:00.841Z,55.99
2022-12-23T04:31:00.880Z,55.99
2022-12-23T04:32:00.809Z,55.99
2022-12-23T04:33:00.817Z,55.96
2022-12-23T04:34:00.802Z,55.96
2022-12-23T04:35:00.816Z,55.89
2022-12-23T04:36:00.769Z,55.89
2022-12-23T04:37:00.761Z,55.99
2022-12-23T04:38:00.767Z,55.99
2022-12-23T04:39:00.736Z,55.96
2022-12-23T04:40:00.726Z,55.89
2022-12-23T04:41:00.788Z,55.76
2022-12-23T04:42:00.711Z,55.87
2022-12-23T04:43:00.690Z,55.87
2022-12-23T04:44:00.681Z,55.87
2022-12-23T04:45:00.716Z,55.87
2022-12-23T04:46:00.669Z,55.76
2022-12-23T04:47:00.764Z,55.76
2022-12-23T04:48:00.648Z,55.76
2022-12-23T04:49:00.626Z,55.76
2022-12-23T04:50:00.629Z,55.76
2022-12-23T04:51:00.605Z,55.96
2022-12-23T04:52:00.596Z,55.96
2022-12-23T04:53:00.616Z,56.07
2022-12-23T04:54:00.576Z,56.07
2022-12-23T04:55:00.561Z,55.96
2022-12-23T04:56:00.553Z,55.96
2022-12-23T04:57:00.544Z,55.96
2022-12-23T04:58:00.552Z,56.16
2022-12-23T04:59:00.549Z,56.16
2022-12-23T05:00:00.509Z,56.27
2022-12-23T05:01:00.579Z,56.16
2022-12-23T05:02:00.850Z,56.07
2022-12-23T05:03:00.699Z,56.07
2022-12-23T05:04:00.479Z,55.96
2022-12-23T05:05:00.528Z,55.96
2022-12-23T05:06:00.491Z,55.96
2022-12-23T05:07:00.443Z,55.96
2022-12-23T05:08:00.424Z,55.96
2022-12-23T05:09:00.408Z,55.87
2022-12-23T05:10:00.401Z,55.87
2022-12-23T05:11:00.426Z,55.87
2022-12-23T05:12:00.403Z,55.87
2022-12-23T05:13:00.374Z,55.87
2022-12-23T05:14:00.366Z,55.87
2022-12-23T05:15:00.354Z,55.76
2022-12-23T05:16:00.429Z,55.87
2022-12-23T05:17:06.873Z,55.76
2022-12-23T05:18:00.322Z,55.76
2022-12-23T05:19:00.312Z,55.76
2022-12-23T05:20:00.291Z,55.76
2022-12-23T05:21:00.294Z,55.66
2022-12-23T05:22:00.282Z,55.66
2022-12-23T05:23:00.305Z,55.66
2022-12-23T05:24:00.254Z,55.56
2022-12-23T05:25:00.242Z,55.56
2022-12-23T05:26:00.242Z,55.56
2022-12-23T05:27:00.744Z,55.56
2022-12-23T05:28:00.201Z,55.56
2022-12-23T05:29:00.236Z,55.46
2022-12-23T05:30:00.194Z,55.46
2022-12-23T05:31:00.175Z,55.46
2022-12-23T05:32:00.317Z,55.46
2022-12-23T05:33:00.207Z,55.46
2022-12-23T05:34:06.046Z,55.36
2022-12-23T05:35:00.186Z,55.36
2022-12-23T05:36:00.142Z,55.36
2022-12-23T05:37:00.104Z,55.36
2022-12-23T05:38:00.101Z,55.26
2022-12-23T05:39:00.121Z,55.26
2022-12-23T05:40:00.126Z,55.26
2022-12-23T05:41:00.162Z,55.26
2022-12-23T05:42:00.129Z,55.26
2022-12-23T05:43:00.042Z,55.26
2022-12-23T05:44:00.040Z,55.26
2022-12-23T05:45:00.021Z,55.16
2022-12-23T05:46:00.161Z,55.16
2022-12-23T05:47:00.036Z,55.16
2022-12-23T05:47:59.995Z,55.16
2022-12-23T05:48:59.977Z,55.16
2022-12-23T05:49:59.974Z,55.16
2022-12-23T05:50:59.972Z,55.06
2022-12-23T05:51:59.946Z,55.06
2022-12-23T05:52:59.979Z,55.06
2022-12-23T05:53:59.923Z,55.06
2022-12-23T05:54:59.909Z,55.06
2022-12-23T05:55:59.907Z,55.06
2022-12-23T05:56:59.900Z,55.06
2022-12-23T05:57:59.880Z,54.96
2022-12-23T05:58:59.911Z,54.96
2022-12-23T05:59:59.867Z,54.96
2022-12-23T06:00:59.848Z,54.96
2022-12-23T06:02:00.125Z,54.96
2022-12-23T06:03:00.111Z,54.96
2022-12-23T06:04:00.021Z,54.86
2022-12-23T06:04:59.858Z,54.96
2022-12-23T06:05:59.799Z,54.96
2022-12-23T06:06:59.802Z,54.86
2022-12-23T06:07:59.771Z,54.88
2022-12-23T06:09:00.447Z,54.88
2022-12-23T06:09:59.765Z,54.86
2022-12-23T06:10:59.911Z,54.75
2022-12-23T06:11:59.732Z,54.66
2022-12-23T06:12:59.724Z,54.48
2022-12-23T06:13:59.706Z,54.58
2022-12-23T06:14:59.696Z,54.81
2022-12-23T06:15:59.703Z,54.94
2022-12-23T06:16:59.772Z,55.14
2022-12-23T06:17:59.659Z,55.16
2022-12-23T06:18:59.659Z,55.36
2022-12-23T06:19:59.652Z,55.46
2022-12-23T06:20:59.634Z,55.59
2022-12-23T06:21:59.629Z,55.69
2022-12-23T06:22:59.647Z,55.69
2022-12-23T06:23:59.607Z,55.79
2022-12-23T06:24:59.589Z,55.82
2022-12-23T06:25:59.580Z,55.92
2022-12-23T06:26:59.573Z,55.92
2022-12-23T06:27:59.589Z,55.92
2022-12-23T06:28:59.592Z,55.92
2022-12-23T06:29:59.543Z,56.02
2022-12-23T06:30:59.534Z,56.02
2022-12-23T06:31:59.562Z,55.82
2022-12-23T06:32:59.497Z,55.79
2022-12-23T06:33:59.490Z,55.77
2022-12-23T06:34:59.586Z,56.37
2022-12-23T06:35:59.469Z,56.07
2022-12-23T06:36:59.465Z,56.04
2022-12-23T06:37:59.450Z,56.04
2022-12-23T06:38:59.444Z,55.94
2022-12-23T06:39:59.441Z,55.74
2022-12-23T06:40:59.456Z,55.62
2022-12-23T06:41:59.405Z,55.51
2022-12-23T06:42:59.394Z,55.51
2022-12-23T06:43:59.381Z,55.41
2022-12-23T06:44:59.379Z,55.31
2022-12-23T06:45:59.393Z,55.31
2022-12-23T06:46:59.384Z,55.21
2022-12-23T06:47:59.345Z,55.21
2022-12-23T06:48:59.328Z,55.11
2022-12-23T06:49:59.318Z,55.11
2022-12-23T06:50:59.319Z,55.11
2022-12-23T06:51:59.304Z,55.01
2022-12-23T06:52:59.307Z,55.01
2022-12-23T06:53:59.279Z,55.01
2022-12-23T06:54:59.261Z,54.91
2022-12-23T06:55:59.258Z,54.91
2022-12-23T06:56:59.240Z,54.91
2022-12-23T06:57:59.228Z,54.81
2022-12-23T06:58:59.238Z,54.81
2022-12-23T06:59:59.201Z,54.81
2022-12-23T07:00:59.264Z,54.81
2022-12-23T07:01:59.519Z,54.71
2022-12-23T07:02:59.337Z,54.71
2022-12-23T07:03:59.197Z,54.71
2022-12-23T07:04:59.176Z,54.71
2022-12-23T07:05:59.140Z,54.61
2022-12-23T07:06:59.143Z,54.61
2022-12-23T07:07:59.120Z,54.61
2022-12-23T07:08:59.115Z,54.61
2022-12-23T07:09:59.094Z,54.61
2022-12-23T07:10:59.132Z,54.50
2022-12-23T07:11:59.081Z,54.50
2022-12-23T07:12:59.062Z,54.61
2022-12-23T07:13:59.058Z,54.61
2022-12-23T07:14:59.044Z,54.61
2022-12-23T07:15:59.038Z,54.71
2022-12-23T07:16:59.116Z,54.81
2022-12-23T07:17:59.032Z,54.99
2022-12-23T07:18:58.999Z,54.99
2022-12-23T07:19:58.986Z,54.99
2022-12-23T07:20:58.978Z,55.08
2022-12-23T07:21:58.969Z,55.08
2022-12-23T07:22:59.002Z,55.08
2022-12-23T07:23:58.950Z,55.19
2022-12-23T07:24:58.936Z,55.19
2022-12-23T07:25:58.929Z,55.29
2022-12-23T07:26:58.914Z,55.29
2022-12-23T07:27:58.904Z,55.29
2022-12-23T07:28:58.923Z,55.39
2022-12-23T07:29:58.875Z,55.39
2022-12-23T07:30:58.925Z,55.39
2022-12-23T07:31:59.041Z,55.39
2022-12-23T07:32:58.842Z,55.39
2022-12-23T07:33:58.850Z,55.39
2022-12-23T07:34:58.865Z,55.39
2022-12-23T07:35:58.821Z,55.39
2022-12-23T07:36:58.813Z,55.39
2022-12-23T07:37:58.788Z,55.49
2022-12-23T07:38:58.784Z,55.49
2022-12-23T07:40:02.138Z,55.39
2022-12-23T07:40:58.791Z,55.49
2022-12-23T07:42:25.148Z,55.49
2022-12-23T07:42:58.743Z,55.49
2022-12-23T07:43:58.734Z,55.49
2022-12-23T07:44:58.711Z,55.49
2022-12-23T07:46:00.836Z,55.49
2022-12-23T07:46:58.746Z,55.49
2022-12-23T07:47:58.685Z,55.49
2022-12-23T07:48:58.674Z,55.49
2022-12-23T07:49:58.658Z,55.49
2022-12-23T07:50:58.651Z,55.49
2022-12-23T07:51:58.631Z,55.49
2022-12-23T07:52:58.677Z,55.49
2022-12-23T07:53:58.616Z,55.49
2022-12-23T07:54:58.611Z,55.49
2022-12-23T07:55:58.619Z,55.49
2022-12-23T07:56:58.578Z,55.49
2022-12-23T07:57:58.579Z,55.49
2022-12-23T07:58:58.591Z,55.49
2022-12-23T07:59:58.558Z,55.49
2022-12-23T08:00:58.581Z,55.49
2022-12-23T08:01:58.700Z,55.49
2022-12-23T08:02:58.663Z,55.49
2022-12-23T08:03:58.503Z,55.49
2022-12-23T08:04:58.589Z,55.49
2022-12-23T08:05:58.484Z,55.49
2022-12-23T08:06:58.473Z,55.49
2022-12-23T08:07:58.471Z,55.59
2022-12-23T08:08:58.474Z,55.49
2022-12-23T08:09:58.439Z,55.49
2022-12-23T08:10:58.451Z,55.49
2022-12-23T08:11:58.412Z,55.49
2022-12-23T08:12:58.400Z,55.49
2022-12-23T08:13:58.395Z,55.49
2022-12-23T08:14:58.399Z,55.49
2022-12-23T08:15:58.388Z,55.49
2022-12-23T08:16:58.474Z,55.49
2022-12-23T08:17:58.359Z,55.49
2022-12-23T08:18:58.340Z,55.49
2022-12-23T08:19:58.337Z,55.59
2022-12-23T08:20:58.342Z,55.59
2022-12-23T08:21:58.313Z,55.49
2022-12-23T08:22:58.332Z,55.59
2022-12-23T08:23:58.308Z,55.59
2022-12-23T08:24:58.272Z,55.59
2022-12-23T08:25:58.268Z,55.59
2022-12-23T08:26:58.269Z,55.59
2022-12-23T08:27:58.248Z,55.59
2022-12-23T08:28:58.252Z,55.49
2022-12-23T08:29:58.233Z,55.49
2022-12-23T08:30:58.291Z,55.49
2022-12-23T08:31:58.206Z,55.59
2022-12-23T08:32:58.188Z,55.49
2022-12-23T08:33:58.187Z,55.49
2022-12-23T08:34:58.197Z,55.49
2022-12-23T08:35:58.164Z,55.49
2022-12-23T08:36:58.139Z,55.49
2022-12-23T08:37:58.135Z,55.59
2022-12-23T08:38:58.145Z,55.49
2022-12-23T08:39:58.109Z,55.59
2022-12-23T08:40:58.146Z,55.59
2022-12-23T08:41:58.111Z,55.49
2022-12-23T08:42:58.086Z,55.49
2022-12-23T08:43:58.078Z,55.59
2022-12-23T08:44:58.063Z,55.59
2022-12-23T08:45:58.074Z,55.59
2022-12-23T08:46:58.059Z,55.59
2022-12-23T08:47:58.027Z,55.59
2022-12-23T08:48:58.018Z,55.59
2022-12-23T08:49:57.997Z,55.59
2022-12-23T08:50:57.990Z,55.59
2022-12-23T08:51:57.994Z,55.59
2022-12-23T08:52:58.013Z,55.59
2022-12-23T08:54:00.501Z,55.59
2022-12-23T08:54:57.954Z,55.59
2022-12-23T08:55:57.938Z,55.69
2022-12-23T08:56:57.941Z,55.69
2022-12-23T08:57:57.914Z,55.69
2022-12-23T08:58:57.936Z,55.69
2022-12-23T08:59:57.898Z,55.69
2022-12-23T09:00:57.888Z,55.69
2022-12-23T09:01:57.983Z,55.69
2022-12-23T09:02:58.039Z,55.69
2022-12-23T09:03:57.994Z,55.69
2022-12-23T09:04:57.887Z,55.69
2022-12-23T09:05:57.832Z,55.69
2022-12-23T09:06:57.820Z,55.69
2022-12-23T09:07:57.804Z,55.79
2022-12-23T09:08:57.792Z,55.79
2022-12-23T09:09:57.791Z,55.79
2022-12-23T09:10:57.833Z,55.79
2022-12-23T09:11:57.763Z,55.79
2022-12-23T09:12:58.279Z,55.79
2022-12-23T09:13:57.743Z,55.79
2022-12-23T09:14:57.735Z,55.79
2022-12-23T09:15:57.803Z,55.79
2022-12-23T09:16:57.736Z,55.79
2022-12-23T09:17:57.719Z,55.79
2022-12-23T09:18:57.696Z,55.79
2022-12-23T09:19:57.676Z,55.79
2022-12-23T09:20:57.663Z,55.79
2022-12-23T09:21:57.649Z,55.79
2022-12-23T09:22:57.672Z,55.79
2022-12-23T09:23:57.627Z,55.79
2022-12-23T09:25:03.242Z,55.89
2022-12-23T09:25:57.626Z,55.89
2022-12-23T09:26:57.597Z,55.89
2022-12-23T09:27:57.590Z,55.79
2022-12-23T09:28:57.622Z,55.79
2022-12-23T09:29:57.569Z,55.89
2022-12-23T09:30:57.590Z,55.89
2022-12-23T09:31:57.650Z,55.89
2022-12-23T09:32:57.528Z,55.89
2022-12-23T09:33:57.540Z,55.89
2022-12-23T09:34:57.549Z,55.89
2022-12-23T09:35:57.505Z,55.89
2022-12-23T09:36:57.481Z,55.89
2022-12-23T09:37:57.498Z,55.89
2022-12-23T09:38:57.481Z,55.89
2022-12-23T09:39:57.500Z,55.89
2022-12-23T09:40:57.477Z,55.89
2022-12-23T09:41:57.446Z,55.89
2022-12-23T09:42:57.421Z,55.89
2022-12-23T09:43:57.414Z,55.99
2022-12-23T09:44:57.401Z,55.89
2022-12-23T09:45:57.474Z,55.89
2022-12-23T09:46:57.526Z,55.89
2022-12-23T09:47:57.371Z,55.89
2022-12-23T09:48:57.362Z,55.89
2022-12-23T09:49:57.350Z,55.89
2022-12-23T09:50:57.332Z,55.89
2022-12-23T09:51:57.331Z,55.89
2022-12-23T09:52:57.333Z,55.99
2022-12-23T09:53:57.301Z,55.99
2022-12-23T09:54:57.302Z,55.99
2022-12-23T09:55:57.297Z,55.99
2022-12-23T09:56:57.280Z,55.99
2022-12-23T09:57:57.260Z,55.99
2022-12-23T09:58:57.279Z,56.09
2022-12-23T09:59:57.240Z,55.99
2022-12-23T10:00:57.235Z,55.99
2022-12-23T10:01:57.360Z,55.99
2022-12-23T10:02:57.396Z,55.89
2022-12-23T10:03:57.256Z,55.99
2022-12-23T10:04:57.211Z,55.89
2022-12-23T10:05:57.182Z,55.89
2022-12-23T10:07:02.628Z,55.89
2022-12-23T10:07:57.152Z,55.79
2022-12-23T10:08:57.139Z,55.79
2022-12-23T10:09:57.143Z,55.79
2022-12-23T10:10:57.150Z,55.69
2022-12-23T10:11:57.103Z,55.69
2022-12-23T10:12:57.097Z,55.69
2022-12-23T10:13:57.081Z,55.69
2022-12-23T10:14:57.111Z,55.69
2022-12-23T10:15:57.125Z,55.59
2022-12-23T10:16:57.105Z,55.59
2022-12-23T10:17:57.061Z,55.59
2022-12-23T10:18:57.048Z,55.59
2022-12-23T10:19:57.013Z,55.49
2022-12-23T10:20:57.015Z,55.49
2022-12-23T10:21:56.996Z,55.49
2022-12-23T10:22:57.044Z,55.49
2022-12-23T10:23:56.971Z,55.39
2022-12-23T10:24:56.975Z,55.39
2022-12-23T10:25:56.956Z,55.39
2022-12-23T10:26:56.974Z,55.39
2022-12-23T10:27:56.932Z,55.39
2022-12-23T10:28:56.960Z,55.39
2022-12-23T10:29:56.908Z,55.29
2022-12-23T10:31:23.961Z,55.29
2022-12-23T10:31:56.949Z,55.29
2022-12-23T10:32:56.886Z,55.19
2022-12-23T10:33:56.872Z,55.19
2022-12-23T10:34:56.912Z,55.19
2022-12-23T10:35:56.881Z,55.19
2022-12-23T10:36:56.915Z,55.19
2022-12-23T10:37:56.828Z,55.19
2022-12-23T10:38:56.819Z,55.08
2022-12-23T10:39:56.801Z,55.08
2022-12-23T10:40:56.820Z,55.08
2022-12-23T10:41:56.784Z,55.08
2022-12-23T10:42:56.795Z,54.99
2022-12-23T10:43:56.766Z,54.99
2022-12-23T10:44:56.754Z,54.99
2022-12-23T10:45:56.741Z,54.99
2022-12-23T10:46:56.849Z,54.99
2022-12-23T10:47:56.713Z,54.88
2022-12-23T10:48:56.706Z,54.88
2022-12-23T10:49:56.694Z,54.79
2022-12-23T10:50:56.689Z,54.79
2022-12-23T10:51:56.689Z,54.79
2022-12-23T10:52:56.709Z,54.79
2022-12-23T10:53:56.644Z,54.68
2022-12-23T10:54:56.638Z,54.68
2022-12-23T10:55:56.621Z,54.68
2022-12-23T10:56:56.621Z,54.68
2022-12-23T10:57:56.602Z,54.68
2022-12-23T10:58:56.629Z,54.68
2022-12-23T10:59:56.585Z,54.58
2022-12-23T11:00:56.612Z,54.58
2022-12-23T11:01:56.792Z,54.58
2022-12-23T11:02:56.738Z,54.58
2022-12-23T11:03:56.628Z,54.58
2022-12-23T11:04:56.559Z,54.48
2022-12-23T11:05:56.515Z,54.48
2022-12-23T11:07:26.329Z,54.48
2022-12-23T11:07:56.506Z,54.48
2022-12-23T11:08:56.489Z,54.48
2022-12-23T11:09:56.479Z,54.48
2022-12-23T11:10:56.504Z,54.38
2022-12-23T11:11:56.467Z,54.38
2022-12-23T11:12:56.447Z,54.38
2022-12-23T11:13:56.436Z,54.38
2022-12-23T11:14:56.433Z,54.38
2022-12-23T11:15:56.457Z,54.38
2022-12-23T11:16:56.420Z,54.38
2022-12-23T11:17:56.399Z,54.38
2022-12-23T11:18:56.387Z,54.38
2022-12-23T11:19:56.359Z,54.38
2022-12-23T11:20:56.359Z,54.28
2022-12-23T11:21:56.351Z,54.28
2022-12-23T11:22:56.385Z,54.28
2022-12-23T11:23:56.319Z,54.28
2022-12-23T11:24:56.308Z,54.28
2022-12-23T11:25:56.295Z,54.28
2022-12-23T11:26:56.291Z,54.28
2022-12-23T11:27:56.275Z,54.28
2022-12-23T11:28:56.295Z,54.28
2022-12-23T11:29:56.260Z,54.18
2022-12-23T11:30:57.183Z,54.18
2022-12-23T11:31:56.288Z,54.18
2022-12-23T11:32:56.241Z,54.18
2022-12-23T11:33:56.213Z,54.18
2022-12-23T11:34:56.328Z,54.18
2022-12-23T11:35:56.184Z,54.18
2022-12-23T11:37:00.276Z,54.18
2022-12-23T11:37:56.187Z,54.18
2022-12-23T11:38:56.169Z,54.18
2022-12-23T11:39:56.149Z,54.08
2022-12-23T11:40:56.201Z,54.08
2022-12-23T11:41:56.132Z,54.08
2022-12-23T11:42:56.116Z,54.08
2022-12-23T11:43:56.109Z,54.08
2022-12-23T11:44:56.102Z,54.08
2022-12-23T11:45:56.165Z,54.08
2022-12-23T11:46:56.113Z,54.08
2022-12-23T11:47:56.072Z,54.08
2022-12-23T11:48:56.050Z,54.08
2022-12-23T11:49:56.034Z,54.08
2022-12-23T11:50:56.029Z,54.08
2022-12-23T11:51:56.022Z,54.08
2022-12-23T11:52:56.056Z,54.08
2022-12-23T11:53:55.992Z,54.08
2022-12-23T11:54:55.979Z,53.98
2022-12-23T11:55:55.983Z,53.98
2022-12-23T11:56:56.066Z,53.98
2022-12-23T11:57:55.949Z,53.98
2022-12-23T11:58:55.981Z,53.98
2022-12-23T11:59:55.925Z,53.98
2022-12-23T12:00:56.433Z,53.98
2022-12-23T12:01:55.946Z,53.98
2022-12-23T12:02:56.083Z,53.98
2022-12-23T12:03:55.949Z,53.98
2022-12-23T12:04:55.919Z,53.98
2022-12-23T12:05:55.859Z,53.98
2022-12-23T12:06:56.823Z,53.98
2022-12-23T12:07:55.841Z,53.98
2022-12-23T12:08:55.835Z,53.98
2022-12-23T12:09:55.822Z,53.98
2022-12-23T12:10:55.852Z,53.98
2022-12-23T12:11:55.810Z,53.88
2022-12-23T12:12:55.789Z,53.88
2022-12-23T12:13:55.786Z,53.88
2022-12-23T12:14:55.770Z,53.88
2022-12-23T12:15:55.751Z,53.88
2022-12-23T12:16:55.912Z,53.88
2022-12-23T12:17:55.730Z,53.88
2022-12-23T12:18:56.133Z,53.88
2022-12-23T12:19:55.713Z,53.88
2022-12-23T12:20:55.706Z,53.88
2022-12-23T12:21:55.694Z,53.88
2022-12-23T12:22:55.710Z,53.88
2022-12-23T12:24:17.214Z,53.88
2022-12-23T12:24:55.671Z,53.88
2022-12-23T12:25:55.673Z,53.88
2022-12-23T12:26:55.645Z,53.88
2022-12-23T12:27:55.641Z,53.88
2022-12-23T12:28:55.654Z,53.78
2022-12-23T12:29:55.594Z,53.78
2022-12-23T12:30:55.663Z,53.78
2022-12-23T12:31:55.578Z,53.78
2022-12-23T12:32:55.567Z,53.78
2022-12-23T12:33:55.560Z,53.78
2022-12-23T12:34:55.584Z,53.78
2022-12-23T12:36:00.247Z,53.78
2022-12-23T12:36:55.565Z,53.78
2022-12-23T12:37:55.516Z,53.78
2022-12-23T12:38:55.501Z,53.78
2022-12-23T12:39:55.489Z,53.78
2022-12-23T12:40:55.522Z,53.78
2022-12-23T12:41:58.544Z,53.78
2022-12-23T12:42:55.460Z,53.78
2022-12-23T12:43:55.456Z,53.78
2022-12-23T12:44:55.439Z,53.78
2022-12-23T12:45:55.492Z,53.78
2022-12-23T12:46:55.435Z,53.67
2022-12-23T12:47:58.456Z,53.78
2022-12-23T12:48:55.399Z,53.67
2022-12-23T12:49:55.378Z,53.67
2022-12-23T12:50:55.386Z,53.67
2022-12-23T12:51:55.354Z,53.67